sensor_id;sensor_type;location;lat;lon;timestamp;P1;durP1;ratioP1;P2;durP2;ratioP2
72949;SDS011;62720;45.710;9.590;2022-10-16T00:00:26;44.47;;;26.73;;
72949;SDS011;62720;45.710;9.590;2022-10-16T00:02:51;43.27;;;27.57;;
72949;SDS011;62720;45.710;9.590;2022-10-16T00:05:16;46.83;;;26.27;;
72949;SDS011;62720;45.710;9.590;2022-10-16T00:07:42;45.10;;;26.93;;
72949;SDS011;62720;45.710;9.590;2022-10-16T00:10:07;41.03;;;24.73;;
72949;SDS011;62720;45.710;9.590;2022-10-16T00:12:32;40.53;;;25.02;;
72949;SDS011;62720;45.710;9.590;2022-10-16T00:14:57;43.27;;;24.70;;
72949;SDS011;62720;45.710;9.590;2022-10-16T00:17:23;40.37;;;24.63;;
72949;SDS011;62720;45.710;9.590;2022-10-16T00:19:48;44.40;;;25.37;;
72949;SDS011;62720;45.710;9.590;2022-10-16T00:22:13;42.95;;;24.67;;
72949;SDS011;62720;45.710;9.590;2022-10-16T00:24:38;42.93;;;25.30;;
72949;SDS011;62720;45.710;9.590;2022-10-16T00:27:04;41.13;;;24.58;;
72949;SDS011;62720;45.710;9.590;2022-10-16T00:29:29;36.80;;;23.37;;
72949;SDS011;62720;45.710;9.590;2022-10-16T00:31:54;38.70;;;24.03;;
72949;SDS011;62720;45.710;9.590;2022-10-16T00:34:19;44.23;;;24.30;;
72949;SDS011;62720;45.710;9.590;2022-10-16T00:36:45;43.47;;;24.95;;
72949;SDS011;62720;45.710;9.590;2022-10-16T00:39:10;39.13;;;24.85;;
72949;SDS011;62720;45.710;9.590;2022-10-16T00:41:35;37.93;;;23.23;;
72949;SDS011;62720;45.710;9.590;2022-10-16T00:44:01;38.47;;;23.00;;
72949;SDS011;62720;45.710;9.590;2022-10-16T00:46:27;41.33;;;25.05;;
72949;SDS011;62720;45.710;9.590;2022-10-16T00:51:23;37.35;;;23.75;;
72949;SDS011;62720;45.710;9.590;2022-10-16T00:53:50;39.58;;;23.30;;
72949;SDS011;62720;45.710;9.590;2022-10-16T00:56:16;36.72;;;23.17;;
72949;SDS011;62720;45.710;9.590;2022-10-16T00:58:41;39.38;;;25.02;;
72949;SDS011;62720;45.710;9.590;2022-10-16T01:01:06;39.97;;;25.17;;
72949;SDS011;62720;45.710;9.590;2022-10-16T01:03:33;38.20;;;23.83;;
72949;SDS011;62720;45.710;9.590;2022-10-16T01:08:39;37.85;;;22.75;;
72949;SDS011;62720;45.710;9.590;2022-10-16T01:11:27;38.05;;;24.15;;
72949;SDS011;62720;45.710;9.590;2022-10-16T01:13:54;34.00;;;22.15;;
72949;SDS011;62720;45.710;9.590;2022-10-16T01:16:31;37.25;;;23.27;;
72949;SDS011;62720;45.710;9.590;2022-10-16T01:19:06;35.80;;;23.48;;
72949;SDS011;62720;45.710;9.590;2022-10-16T01:21:35;38.53;;;24.08;;
72949;SDS011;62720;45.710;9.590;2022-10-16T01:29:29;38.65;;;24.10;;
72949;SDS011;62720;45.710;9.590;2022-10-16T01:32:00;44.95;;;24.40;;
72949;SDS011;62720;45.710;9.590;2022-10-16T01:34:33;38.40;;;23.92;;
72949;SDS011;62720;45.710;9.590;2022-10-16T01:37:02;44.05;;;25.50;;
72949;SDS011;62720;45.710;9.590;2022-10-16T01:39:30;41.13;;;23.80;;
72949;SDS011;62720;45.710;9.590;2022-10-16T01:42:01;39.38;;;25.15;;
72949;SDS011;62720;45.710;9.590;2022-10-16T01:44:29;39.42;;;24.02;;
72949;SDS011;62720;45.710;9.590;2022-10-16T01:46:56;39.88;;;24.17;;
72949;SDS011;62720;45.710;9.590;2022-10-16T01:49:23;40.22;;;25.55;;
72949;SDS011;62720;45.710;9.590;2022-10-16T01:51:50;36.05;;;22.83;;
72949;SDS011;62720;45.710;9.590;2022-10-16T01:54:17;38.13;;;24.85;;
72949;SDS011;62720;45.710;9.590;2022-10-16T01:56:43;41.30;;;24.80;;
72949;SDS011;62720;45.710;9.590;2022-10-16T01:59:09;41.13;;;24.30;;
72949;SDS011;62720;45.710;9.590;2022-10-16T02:01:36;39.08;;;24.17;;
72949;SDS011;62720;45.710;9.590;2022-10-16T02:04:04;45.97;;;24.98;;
72949;SDS011;62720;45.710;9.590;2022-10-16T02:06:30;41.53;;;24.60;;
72949;SDS011;62720;45.710;9.590;2022-10-16T02:08:56;38.67;;;23.83;;
72949;SDS011;62720;45.710;9.590;2022-10-16T02:11:22;39.40;;;23.45;;
72949;SDS011;62720;45.710;9.590;2022-10-16T02:13:55;39.47;;;23.27;;
72949;SDS011;62720;45.710;9.590;2022-10-16T02:16:32;36.78;;;21.60;;
72949;SDS011;62720;45.710;9.590;2022-10-16T02:18:57;37.83;;;22.52;;
72949;SDS011;62720;45.710;9.590;2022-10-16T02:21:26;41.05;;;24.02;;
72949;SDS011;62720;45.710;9.590;2022-10-16T02:23:55;35.30;;;22.55;;
72949;SDS011;62720;45.710;9.590;2022-10-16T02:26:26;34.53;;;22.35;;
72949;SDS011;62720;45.710;9.590;2022-10-16T02:28:54;32.60;;;21.67;;
72949;SDS011;62720;45.710;9.590;2022-10-16T02:31:25;32.45;;;21.50;;
72949;SDS011;62720;45.710;9.590;2022-10-16T02:33:52;37.38;;;23.85;;
72949;SDS011;62720;45.710;9.590;2022-10-16T02:36:18;39.20;;;23.95;;
72949;SDS011;62720;45.710;9.590;2022-10-16T02:38:43;38.92;;;23.23;;
72949;SDS011;62720;45.710;9.590;2022-10-16T02:41:09;33.42;;;20.92;;
72949;SDS011;62720;45.710;9.590;2022-10-16T02:43:34;36.25;;;22.08;;
72949;SDS011;62720;45.710;9.590;2022-10-16T02:45:59;39.60;;;22.63;;
72949;SDS011;62720;45.710;9.590;2022-10-16T02:48:24;38.92;;;23.80;;
72949;SDS011;62720;45.710;9.590;2022-10-16T02:50:50;34.75;;;21.75;;
72949;SDS011;62720;45.710;9.590;2022-10-16T02:53:16;35.20;;;22.33;;
72949;SDS011;62720;45.710;9.590;2022-10-16T02:55:41;35.35;;;22.08;;
72949;SDS011;62720;45.710;9.590;2022-10-16T02:58:07;39.67;;;23.23;;
72949;SDS011;62720;45.710;9.590;2022-10-16T03:00:32;36.05;;;22.58;;
72949;SDS011;62720;45.710;9.590;2022-10-16T03:02:57;35.72;;;21.10;;
72949;SDS011;62720;45.710;9.590;2022-10-16T03:05:23;37.03;;;22.63;;
72949;SDS011;62720;45.710;9.590;2022-10-16T03:07:48;40.55;;;22.98;;
72949;SDS011;62720;45.710;9.590;2022-10-16T03:10:17;40.78;;;22.88;;
72949;SDS011;62720;45.710;9.590;2022-10-16T03:12:44;32.30;;;21.65;;
72949;SDS011;62720;45.710;9.590;2022-10-16T03:15:09;34.85;;;22.52;;
72949;SDS011;62720;45.710;9.590;2022-10-16T03:17:35;38.50;;;22.52;;
72949;SDS011;62720;45.710;9.590;2022-10-16T03:20:04;35.45;;;22.15;;
72949;SDS011;62720;45.710;9.590;2022-10-16T03:22:30;32.50;;;20.70;;
72949;SDS011;62720;45.710;9.590;2022-10-16T03:24:55;34.35;;;21.92;;
72949;SDS011;62720;45.710;9.590;2022-10-16T03:27:21;36.17;;;21.83;;
72949;SDS011;62720;45.710;9.590;2022-10-16T03:29:49;35.15;;;21.42;;
72949;SDS011;62720;45.710;9.590;2022-10-16T03:32:15;35.40;;;21.15;;
72949;SDS011;62720;45.710;9.590;2022-10-16T03:34:45;35.70;;;22.08;;
72949;SDS011;62720;45.710;9.590;2022-10-16T03:37:10;34.83;;;21.88;;
72949;SDS011;62720;45.710;9.590;2022-10-16T03:39:35;31.83;;;20.75;;
72949;SDS011;62720;45.710;9.590;2022-10-16T03:42:00;36.90;;;20.63;;
72949;SDS011;62720;45.710;9.590;2022-10-16T03:44:27;35.43;;;21.37;;
72949;SDS011;62720;45.710;9.590;2022-10-16T03:46:52;33.85;;;22.02;;
72949;SDS011;62720;45.710;9.590;2022-10-16T03:49:17;32.15;;;20.33;;
72949;SDS011;62720;45.710;9.590;2022-10-16T03:51:42;33.17;;;20.70;;
72949;SDS011;62720;45.710;9.590;2022-10-16T03:54:09;33.60;;;20.48;;
72949;SDS011;62720;45.710;9.590;2022-10-16T03:56:34;33.55;;;20.92;;
72949;SDS011;62720;45.710;9.590;2022-10-16T03:58:59;32.08;;;20.35;;
72949;SDS011;62720;45.710;9.590;2022-10-16T04:01:25;34.87;;;20.23;;
72949;SDS011;62720;45.710;9.590;2022-10-16T04:03:50;36.27;;;21.77;;
72949;SDS011;62720;45.710;9.590;2022-10-16T04:06:15;32.67;;;21.20;;
72949;SDS011;62720;45.710;9.590;2022-10-16T04:08:42;34.53;;;19.53;;
72949;SDS011;62720;45.710;9.590;2022-10-16T04:11:07;34.95;;;20.70;;
72949;SDS011;62720;45.710;9.590;2022-10-16T04:13:35;32.93;;;20.50;;
72949;SDS011;62720;45.710;9.590;2022-10-16T04:16:00;36.45;;;22.10;;
72949;SDS011;62720;45.710;9.590;2022-10-16T04:18:25;33.35;;;19.85;;
72949;SDS011;62720;45.710;9.590;2022-10-16T04:20:52;37.85;;;22.73;;
72949;SDS011;62720;45.710;9.590;2022-10-16T04:23:17;32.78;;;20.30;;
72949;SDS011;62720;45.710;9.590;2022-10-16T04:25:43;35.95;;;22.17;;
72949;SDS011;62720;45.710;9.590;2022-10-16T04:28:08;35.67;;;21.20;;
72949;SDS011;62720;45.710;9.590;2022-10-16T04:30:33;33.40;;;21.00;;
72949;SDS011;62720;45.710;9.590;2022-10-16T04:32:58;33.67;;;19.92;;
72949;SDS011;62720;45.710;9.590;2022-10-16T04:35:24;29.25;;;18.40;;
72949;SDS011;62720;45.710;9.590;2022-10-16T04:37:49;35.70;;;20.92;;
72949;SDS011;62720;45.710;9.590;2022-10-16T04:40:15;33.25;;;20.95;;
72949;SDS011;62720;45.710;9.590;2022-10-16T04:42:41;34.90;;;20.17;;
72949;SDS011;62720;45.710;9.590;2022-10-16T04:45:06;32.67;;;20.50;;
72949;SDS011;62720;45.710;9.590;2022-10-16T04:47:32;34.53;;;21.00;;
72949;SDS011;62720;45.710;9.590;2022-10-16T04:49:57;33.10;;;19.10;;
72949;SDS011;62720;45.710;9.590;2022-10-16T04:52:27;30.13;;;19.25;;
72949;SDS011;62720;45.710;9.590;2022-10-16T04:54:52;29.65;;;18.90;;
72949;SDS011;62720;45.710;9.590;2022-10-16T04:57:18;36.92;;;22.23;;
72949;SDS011;62720;45.710;9.590;2022-10-16T04:59:44;31.50;;;20.60;;
72949;SDS011;62720;45.710;9.590;2022-10-16T05:02:09;32.08;;;20.70;;
72949;SDS011;62720;45.710;9.590;2022-10-16T05:04:34;36.25;;;23.02;;
72949;SDS011;62720;45.710;9.590;2022-10-16T05:06:59;35.30;;;20.83;;
72949;SDS011;62720;45.710;9.590;2022-10-16T05:09:25;35.10;;;20.80;;
72949;SDS011;62720;45.710;9.590;2022-10-16T05:11:50;32.72;;;21.02;;
72949;SDS011;62720;45.710;9.590;2022-10-16T05:14:16;33.83;;;20.70;;
72949;SDS011;62720;45.710;9.590;2022-10-16T05:16:41;36.90;;;21.70;;
72949;SDS011;62720;45.710;9.590;2022-10-16T05:19:06;36.10;;;21.55;;
72949;SDS011;62720;45.710;9.590;2022-10-16T05:21:31;32.33;;;20.88;;
72949;SDS011;62720;45.710;9.590;2022-10-16T05:23:57;35.60;;;21.40;;
72949;SDS011;62720;45.710;9.590;2022-10-16T05:26:22;36.93;;;20.90;;
72949;SDS011;62720;45.710;9.590;2022-10-16T05:28:48;33.00;;;20.63;;
72949;SDS011;62720;45.710;9.590;2022-10-16T05:31:14;35.17;;;21.50;;
72949;SDS011;62720;45.710;9.590;2022-10-16T05:33:39;37.45;;;20.35;;
72949;SDS011;62720;45.710;9.590;2022-10-16T05:36:05;34.28;;;21.27;;
72949;SDS011;62720;45.710;9.590;2022-10-16T05:38:32;30.70;;;19.77;;
72949;SDS011;62720;45.710;9.590;2022-10-16T05:40:57;33.38;;;20.70;;
72949;SDS011;62720;45.710;9.590;2022-10-16T05:43:23;36.65;;;21.65;;
72949;SDS011;62720;45.710;9.590;2022-10-16T05:45:58;39.88;;;21.77;;
72949;SDS011;62720;45.710;9.590;2022-10-16T05:48:24;37.05;;;20.98;;
72949;SDS011;62720;45.710;9.590;2022-10-16T05:50:56;35.83;;;20.95;;
72949;SDS011;62720;45.710;9.590;2022-10-16T05:53:22;32.75;;;20.55;;
72949;SDS011;62720;45.710;9.590;2022-10-16T05:55:53;32.05;;;20.15;;
72949;SDS011;62720;45.710;9.590;2022-10-16T05:58:19;36.13;;;21.45;;
72949;SDS011;62720;45.710;9.590;2022-10-16T06:00:44;36.08;;;21.95;;
72949;SDS011;62720;45.710;9.590;2022-10-16T06:03:09;37.13;;;21.77;;
72949;SDS011;62720;45.710;9.590;2022-10-16T06:05:35;33.07;;;21.20;;
72949;SDS011;62720;45.710;9.590;2022-10-16T06:08:00;34.43;;;20.67;;
72949;SDS011;62720;45.710;9.590;2022-10-16T06:10:25;30.17;;;19.57;;
72949;SDS011;62720;45.710;9.590;2022-10-16T06:12:50;33.72;;;19.60;;
72949;SDS011;62720;45.710;9.590;2022-10-16T06:15:16;35.20;;;19.27;;
72949;SDS011;62720;45.710;9.590;2022-10-16T06:17:41;42.03;;;20.27;;
72949;SDS011;62720;45.710;9.590;2022-10-16T06:20:06;29.10;;;17.40;;
72949;SDS011;62720;45.710;9.590;2022-10-16T06:22:31;31.52;;;18.00;;
72949;SDS011;62720;45.710;9.590;2022-10-16T06:24:57;27.83;;;17.73;;
72949;SDS011;62720;45.710;9.590;2022-10-16T06:27:22;25.77;;;17.60;;
72949;SDS011;62720;45.710;9.590;2022-10-16T06:29:47;28.67;;;17.57;;
72949;SDS011;62720;45.710;9.590;2022-10-16T06:32:12;27.38;;;17.60;;
72949;SDS011;62720;45.710;9.590;2022-10-16T06:34:38;29.42;;;18.35;;
72949;SDS011;62720;45.710;9.590;2022-10-16T06:37:05;25.85;;;16.60;;
72949;SDS011;62720;45.710;9.590;2022-10-16T06:39:30;25.45;;;16.20;;
72949;SDS011;62720;45.710;9.590;2022-10-16T06:41:55;26.57;;;16.73;;
72949;SDS011;62720;45.710;9.590;2022-10-16T06:44:20;24.05;;;15.10;;
72949;SDS011;62720;45.710;9.590;2022-10-16T06:46:45;26.03;;;15.73;;
72949;SDS011;62720;45.710;9.590;2022-10-16T06:49:11;30.10;;;16.17;;
72949;SDS011;62720;45.710;9.590;2022-10-16T06:51:36;25.00;;;15.77;;
72949;SDS011;62720;45.710;9.590;2022-10-16T06:54:05;25.05;;;15.55;;
72949;SDS011;62720;45.710;9.590;2022-10-16T06:56:31;28.03;;;15.53;;
72949;SDS011;62720;45.710;9.590;2022-10-16T06:58:57;24.27;;;15.13;;
72949;SDS011;62720;45.710;9.590;2022-10-16T07:01:22;26.00;;;15.50;;
72949;SDS011;62720;45.710;9.590;2022-10-16T07:03:48;26.13;;;15.27;;
72949;SDS011;62720;45.710;9.590;2022-10-16T07:06:14;21.63;;;14.48;;
72949;SDS011;62720;45.710;9.590;2022-10-16T07:08:41;22.65;;;14.77;;
72949;SDS011;62720;45.710;9.590;2022-10-16T07:11:10;20.42;;;13.65;;
72949;SDS011;62720;45.710;9.590;2022-10-16T07:13:36;22.02;;;13.55;;
72949;SDS011;62720;45.710;9.590;2022-10-16T07:16:09;22.75;;;13.82;;
72949;SDS011;62720;45.710;9.590;2022-10-16T07:18:35;22.00;;;13.48;;
72949;SDS011;62720;45.710;9.590;2022-10-16T07:21:08;23.38;;;13.35;;
72949;SDS011;62720;45.710;9.590;2022-10-16T07:23:34;18.27;;;12.35;;
72949;SDS011;62720;45.710;9.590;2022-10-16T07:25:59;20.85;;;12.68;;
72949;SDS011;62720;45.710;9.590;2022-10-16T07:28:24;21.05;;;12.00;;
72949;SDS011;62720;45.710;9.590;2022-10-16T07:30:50;21.70;;;12.15;;
72949;SDS011;62720;45.710;9.590;2022-10-16T07:33:15;19.80;;;12.32;;
72949;SDS011;62720;45.710;9.590;2022-10-16T07:35:53;18.58;;;11.93;;
72949;SDS011;62720;45.710;9.590;2022-10-16T07:38:19;18.63;;;11.73;;
72949;SDS011;62720;45.710;9.590;2022-10-16T07:40:44;22.88;;;12.70;;
72949;SDS011;62720;45.710;9.590;2022-10-16T07:43:10;20.85;;;12.07;;
72949;SDS011;62720;45.710;9.590;2022-10-16T07:45:35;19.50;;;11.35;;
72949;SDS011;62720;45.710;9.590;2022-10-16T07:48:00;17.50;;;11.13;;
72949;SDS011;62720;45.710;9.590;2022-10-16T07:50:26;20.20;;;11.20;;
72949;SDS011;62720;45.710;9.590;2022-10-16T07:52:51;15.50;;;10.00;;
72949;SDS011;62720;45.710;9.590;2022-10-16T07:55:17;16.38;;;11.02;;
72949;SDS011;62720;45.710;9.590;2022-10-16T07:57:42;17.63;;;10.30;;
72949;SDS011;62720;45.710;9.590;2022-10-16T08:00:07;16.93;;;10.40;;
72949;SDS011;62720;45.710;9.590;2022-10-16T08:02:38;17.67;;;11.05;;
72949;SDS011;62720;45.710;9.590;2022-10-16T08:05:03;18.52;;;11.00;;
72949;SDS011;62720;45.710;9.590;2022-10-16T08:07:29;19.35;;;12.98;;
72949;SDS011;62720;45.710;9.590;2022-10-16T08:09:54;20.67;;;12.37;;
72949;SDS011;62720;45.710;9.590;2022-10-16T08:12:21;20.35;;;11.95;;
72949;SDS011;62720;45.710;9.590;2022-10-16T08:14:46;18.63;;;12.25;;
72949;SDS011;62720;45.710;9.590;2022-10-16T08:17:13;18.80;;;11.37;;
72949;SDS011;62720;45.710;9.590;2022-10-16T08:19:38;23.98;;;12.70;;
72949;SDS011;62720;45.710;9.590;2022-10-16T08:22:03;18.63;;;11.20;;
72949;SDS011;62720;45.710;9.590;2022-10-16T08:24:29;18.83;;;11.87;;
72949;SDS011;62720;45.710;9.590;2022-10-16T08:26:56;20.10;;;11.57;;
72949;SDS011;62720;45.710;9.590;2022-10-16T08:29:21;17.25;;;11.23;;
72949;SDS011;62720;45.710;9.590;2022-10-16T08:31:46;19.73;;;11.73;;
72949;SDS011;62720;45.710;9.590;2022-10-16T08:34:11;16.05;;;10.95;;
72949;SDS011;62720;45.710;9.590;2022-10-16T08:36:37;20.02;;;11.68;;
72949;SDS011;62720;45.710;9.590;2022-10-16T08:39:03;17.17;;;11.25;;
72949;SDS011;62720;45.710;9.590;2022-10-16T08:48:59;21.42;;;13.43;;
72949;SDS011;62720;45.710;9.590;2022-10-16T08:53:54;20.83;;;13.50;;
72949;SDS011;62720;45.710;9.590;2022-10-16T08:56:20;27.23;;;17.15;;
72949;SDS011;62720;45.710;9.590;2022-10-16T08:58:46;25.77;;;16.65;;
72949;SDS011;62720;45.710;9.590;2022-10-16T09:01:13;31.20;;;22.00;;
72949;SDS011;62720;45.710;9.590;2022-10-16T09:06:18;31.30;;;21.45;;
72949;SDS011;62720;45.710;9.590;2022-10-16T09:08:50;31.70;;;22.23;;
72949;SDS011;62720;45.710;9.590;2022-10-16T09:11:32;33.47;;;20.95;;
72949;SDS011;62720;45.710;9.590;2022-10-16T09:14:03;26.73;;;19.13;;
72949;SDS011;62720;45.710;9.590;2022-10-16T09:16:33;46.10;;;30.02;;
72949;SDS011;62720;45.710;9.590;2022-10-16T09:19:05;57.40;;;37.63;;
72949;SDS011;62720;45.710;9.590;2022-10-16T09:21:44;55.45;;;35.95;;
72949;SDS011;62720;45.710;9.590;2022-10-16T09:26:38;45.88;;;30.75;;
72949;SDS011;62720;45.710;9.590;2022-10-16T09:29:03;56.20;;;36.67;;
72949;SDS011;62720;45.710;9.590;2022-10-16T09:31:28;44.00;;;30.03;;
72949;SDS011;62720;45.710;9.590;2022-10-16T09:33:55;50.80;;;35.43;;
72949;SDS011;62720;45.710;9.590;2022-10-16T09:36:21;49.17;;;32.28;;
72949;SDS011;62720;45.710;9.590;2022-10-16T09:38:46;47.45;;;29.98;;
72949;SDS011;62720;45.710;9.590;2022-10-16T09:41:21;43.60;;;29.77;;
72949;SDS011;62720;45.710;9.590;2022-10-16T09:46:24;41.97;;;29.88;;
72949;SDS011;62720;45.710;9.590;2022-10-16T09:48:50;45.20;;;30.17;;
72949;SDS011;62720;45.710;9.590;2022-10-16T09:51:36;46.20;;;31.35;;
72949;SDS011;62720;45.710;9.590;2022-10-16T09:56:30;49.90;;;32.95;;
72949;SDS011;62720;45.710;9.590;2022-10-16T09:58:57;45.95;;;30.88;;
72949;SDS011;62720;45.710;9.590;2022-10-16T10:01:28;45.25;;;31.20;;
72949;SDS011;62720;45.710;9.590;2022-10-16T10:03:55;46.00;;;30.95;;
72949;SDS011;62720;45.710;9.590;2022-10-16T10:06:31;47.05;;;30.30;;
72949;SDS011;62720;45.710;9.590;2022-10-16T10:09:03;44.60;;;28.48;;
72949;SDS011;62720;45.710;9.590;2022-10-16T10:12:15;39.92;;;25.13;;
72949;SDS011;62720;45.710;9.590;2022-10-16T10:14:19;39.03;;;26.58;;
72949;SDS011;62720;45.710;9.590;2022-10-16T10:16:45;44.45;;;29.55;;
72949;SDS011;62720;45.710;9.590;2022-10-16T10:19:17;46.13;;;30.80;;
72949;SDS011;62720;45.710;9.590;2022-10-16T10:21:43;42.90;;;31.23;;
72949;SDS011;62720;45.710;9.590;2022-10-16T10:24:12;45.25;;;29.70;;
72949;SDS011;62720;45.710;9.590;2022-10-16T10:26:37;43.35;;;28.67;;
72949;SDS011;62720;45.710;9.590;2022-10-16T10:29:06;45.45;;;29.10;;
72949;SDS011;62720;45.710;9.590;2022-10-16T10:37:04;37.63;;;25.15;;
72949;SDS011;62720;45.710;9.590;2022-10-16T10:39:47;39.13;;;27.73;;
72949;SDS011;62720;45.710;9.590;2022-10-16T10:42:28;34.55;;;25.40;;
72949;SDS011;62720;45.710;9.590;2022-10-16T11:07:21;45.90;;;28.77;;
72949;SDS011;62720;45.710;9.590;2022-10-16T11:09:57;46.00;;;29.85;;
72949;SDS011;62720;45.710;9.590;2022-10-16T11:12:25;40.95;;;28.00;;
72949;SDS011;62720;45.710;9.590;2022-10-16T11:17:37;39.60;;;26.60;;
72949;SDS011;62720;45.710;9.590;2022-10-16T11:22:30;37.13;;;25.42;;
72949;SDS011;62720;45.710;9.590;2022-10-16T11:27:25;38.60;;;25.30;;
72949;SDS011;62720;45.710;9.590;2022-10-16T11:29:58;38.28;;;25.42;;
72949;SDS011;62720;45.710;9.590;2022-10-16T11:32:32;35.85;;;24.40;;
72949;SDS011;62720;45.710;9.590;2022-10-16T11:35:06;37.05;;;23.63;;
72949;SDS011;62720;45.710;9.590;2022-10-16T11:37:35;36.95;;;23.75;;
72949;SDS011;62720;45.710;9.590;2022-10-16T11:40:45;34.50;;;24.13;;
72949;SDS011;62720;45.710;9.590;2022-10-16T11:43:04;40.13;;;25.90;;
72949;SDS011;62720;45.710;9.590;2022-10-16T11:45:39;40.42;;;26.75;;
72949;SDS011;62720;45.710;9.590;2022-10-16T11:50:55;46.83;;;30.10;;
72949;SDS011;62720;45.710;9.590;2022-10-16T11:53:33;48.88;;;32.58;;
72949;SDS011;62720;45.710;9.590;2022-10-16T11:56:00;51.00;;;31.38;;
72949;SDS011;62720;45.710;9.590;2022-10-16T11:58:30;45.55;;;29.25;;
72949;SDS011;62720;45.710;9.590;2022-10-16T12:01:00;43.50;;;29.65;;
72949;SDS011;62720;45.710;9.590;2022-10-16T12:03:33;53.95;;;34.38;;
72949;SDS011;62720;45.710;9.590;2022-10-16T12:06:42;46.80;;;31.30;;
72949;SDS011;62720;45.710;9.590;2022-10-16T12:08:49;48.13;;;30.00;;
72949;SDS011;62720;45.710;9.590;2022-10-16T12:14:38;51.47;;;33.10;;
72949;SDS011;62720;45.710;9.590;2022-10-16T12:19:19;44.45;;;31.38;;
72949;SDS011;62720;45.710;9.590;2022-10-16T12:21:44;48.33;;;34.13;;
72949;SDS011;62720;45.710;9.590;2022-10-16T12:24:27;53.95;;;33.20;;
72949;SDS011;62720;45.710;9.590;2022-10-16T12:26:54;48.92;;;31.92;;
72949;SDS011;62720;45.710;9.590;2022-10-16T12:31:54;50.25;;;32.60;;
72949;SDS011;62720;45.710;9.590;2022-10-16T12:34:22;51.30;;;33.47;;
72949;SDS011;62720;45.710;9.590;2022-10-16T12:39:20;53.28;;;33.38;;
72949;SDS011;62720;45.710;9.590;2022-10-16T12:41:46;49.65;;;30.15;;
72949;SDS011;62720;45.710;9.590;2022-10-16T12:44:23;49.47;;;32.17;;
72949;SDS011;62720;45.710;9.590;2022-10-16T12:46:51;50.65;;;31.23;;
72949;SDS011;62720;45.710;9.590;2022-10-16T12:49:29;49.50;;;28.40;;
72949;SDS011;62720;45.710;9.590;2022-10-16T12:51:55;57.30;;;33.28;;
72949;SDS011;62720;45.710;9.590;2022-10-16T12:54:22;49.13;;;30.48;;
72949;SDS011;62720;45.710;9.590;2022-10-16T12:59:28;47.67;;;29.65;;
72949;SDS011;62720;45.710;9.590;2022-10-16T13:12:31;51.85;;;31.10;;
72949;SDS011;62720;45.710;9.590;2022-10-16T13:15:23;53.53;;;32.80;;
72949;SDS011;62720;45.710;9.590;2022-10-16T13:18:02;53.22;;;33.28;;
72949;SDS011;62720;45.710;9.590;2022-10-16T13:25:33;63.65;;;33.85;;
72949;SDS011;62720;45.710;9.590;2022-10-16T13:28:01;57.38;;;34.05;;
72949;SDS011;62720;45.710;9.590;2022-10-16T13:30:31;60.70;;;37.63;;
72949;SDS011;62720;45.710;9.590;2022-10-16T13:33:02;62.28;;;34.65;;
72949;SDS011;62720;45.710;9.590;2022-10-16T13:35:32;52.55;;;32.97;;
72949;SDS011;62720;45.710;9.590;2022-10-16T13:40:29;47.90;;;29.05;;
72949;SDS011;62720;45.710;9.590;2022-10-16T13:42:54;53.10;;;32.53;;
72949;SDS011;62720;45.710;9.590;2022-10-16T13:45:21;58.53;;;33.70;;
72949;SDS011;62720;45.710;9.590;2022-10-16T13:47:46;57.75;;;33.50;;
72949;SDS011;62720;45.710;9.590;2022-10-16T13:50:13;57.92;;;34.83;;
72949;SDS011;62720;45.710;9.590;2022-10-16T13:52:38;59.88;;;34.65;;
72949;SDS011;62720;45.710;9.590;2022-10-16T13:55:10;56.00;;;33.70;;
72949;SDS011;62720;45.710;9.590;2022-10-16T13:57:36;51.80;;;30.85;;
72949;SDS011;62720;45.710;9.590;2022-10-16T14:00:01;44.83;;;27.60;;
72949;SDS011;62720;45.710;9.590;2022-10-16T14:02:32;50.70;;;31.05;;
72949;SDS011;62720;45.710;9.590;2022-10-16T14:05:02;46.08;;;26.55;;
72949;SDS011;62720;45.710;9.590;2022-10-16T14:07:29;45.80;;;29.23;;
72949;SDS011;62720;45.710;9.590;2022-10-16T14:09:56;53.40;;;31.70;;
72949;SDS011;62720;45.710;9.590;2022-10-16T14:12:22;46.72;;;29.08;;
72949;SDS011;62720;45.710;9.590;2022-10-16T14:14:50;44.45;;;27.30;;
72949;SDS011;62720;45.710;9.590;2022-10-16T14:17:18;44.00;;;26.42;;
72949;SDS011;62720;45.710;9.590;2022-10-16T14:19:48;55.55;;;31.42;;
72949;SDS011;62720;45.710;9.590;2022-10-16T14:24:58;47.88;;;28.23;;
72949;SDS011;62720;45.710;9.590;2022-10-16T14:27:31;52.10;;;30.67;;
72949;SDS011;62720;45.710;9.590;2022-10-16T14:30:12;55.95;;;32.70;;
72949;SDS011;62720;45.710;9.590;2022-10-16T14:32:40;63.63;;;33.88;;
72949;SDS011;62720;45.710;9.590;2022-10-16T14:35:11;43.63;;;27.63;;
72949;SDS011;62720;45.710;9.590;2022-10-16T14:37:50;48.88;;;27.95;;
72949;SDS011;62720;45.710;9.590;2022-10-16T14:40:15;43.97;;;27.38;;
72949;SDS011;62720;45.710;9.590;2022-10-16T14:42:42;50.28;;;29.35;;
72949;SDS011;62720;45.710;9.590;2022-10-16T14:45:08;44.70;;;28.92;;
72949;SDS011;62720;45.710;9.590;2022-10-16T14:47:34;43.55;;;26.52;;
72949;SDS011;62720;45.710;9.590;2022-10-16T14:50:00;48.10;;;30.13;;
72949;SDS011;62720;45.710;9.590;2022-10-16T14:52:25;48.40;;;30.80;;
72949;SDS011;62720;45.710;9.590;2022-10-16T14:54:50;44.90;;;27.98;;
72949;SDS011;62720;45.710;9.590;2022-10-16T14:57:20;40.90;;;27.17;;
72949;SDS011;62720;45.710;9.590;2022-10-16T14:59:46;40.95;;;26.50;;
72949;SDS011;62720;45.710;9.590;2022-10-16T15:02:20;42.05;;;28.63;;
72949;SDS011;62720;45.710;9.590;2022-10-16T15:04:47;44.53;;;26.70;;
72949;SDS011;62720;45.710;9.590;2022-10-16T15:07:13;40.30;;;27.15;;
72949;SDS011;62720;45.710;9.590;2022-10-16T15:09:38;43.20;;;27.30;;
72949;SDS011;62720;45.710;9.590;2022-10-16T15:12:03;43.90;;;27.92;;
72949;SDS011;62720;45.710;9.590;2022-10-16T15:14:29;39.63;;;25.88;;
72949;SDS011;62720;45.710;9.590;2022-10-16T15:16:54;45.58;;;27.88;;
72949;SDS011;62720;45.710;9.590;2022-10-16T15:19:19;43.83;;;25.42;;
72949;SDS011;62720;45.710;9.590;2022-10-16T15:21:44;45.30;;;27.08;;
72949;SDS011;62720;45.710;9.590;2022-10-16T15:24:11;54.37;;;28.73;;
72949;SDS011;62720;45.710;9.590;2022-10-16T15:26:37;38.90;;;24.27;;
72949;SDS011;62720;45.710;9.590;2022-10-16T15:29:02;50.38;;;28.95;;
72949;SDS011;62720;45.710;9.590;2022-10-16T15:31:28;43.87;;;26.30;;
72949;SDS011;62720;45.710;9.590;2022-10-16T15:33:53;47.33;;;26.88;;
72949;SDS011;62720;45.710;9.590;2022-10-16T15:36:26;50.38;;;28.05;;
72949;SDS011;62720;45.710;9.590;2022-10-16T15:38:51;43.28;;;26.70;;
72949;SDS011;62720;45.710;9.590;2022-10-16T15:41:18;42.95;;;25.30;;
72949;SDS011;62720;45.710;9.590;2022-10-16T15:43:43;34.57;;;22.73;;
72949;SDS011;62720;45.710;9.590;2022-10-16T15:46:09;33.50;;;21.70;;
72949;SDS011;62720;45.710;9.590;2022-10-16T15:48:36;39.72;;;23.65;;
72949;SDS011;62720;45.710;9.590;2022-10-16T15:51:04;48.33;;;26.48;;
72949;SDS011;62720;45.710;9.590;2022-10-16T15:53:29;43.88;;;25.67;;
72949;SDS011;62720;45.710;9.590;2022-10-16T15:55:55;36.53;;;23.20;;
72949;SDS011;62720;45.710;9.590;2022-10-16T15:58:20;41.63;;;24.90;;
72949;SDS011;62720;45.710;9.590;2022-10-16T16:00:53;51.75;;;28.42;;
72949;SDS011;62720;45.710;9.590;2022-10-16T16:03:18;46.97;;;26.50;;
72949;SDS011;62720;45.710;9.590;2022-10-16T16:05:43;41.07;;;25.37;;